Airfield :
LOGIN :

Register | Disclaimer

   EN    FR    IT 

 










Legend :    VFR   Marginal VFR   IFR   Intensive IFR   Very Intensive IFR
Visi :
Ceiling :
>= 8 km
>= 3000ft
5 to 8 km
1000 to 3000 ft
1500m to 5 km
500 to 1000 ft
800 to 1500m
200 to 500 ft
< 800m
< 200 ft
Symbols :   Thunderstorms  Fog  Heavy snow  Heavy precipitations  Wind > 20 kt
SIGMETs :     Misc.  Thunderstorms  Icing  Turbulence  Mountain Waves  Volcanic Ashes







- Airport Elevation : 154 ft
- IATA code : SZZ


EPSC - Szczecin Goleniow

CURRENT METAR :
  • 161330Z 21007KT 170V240 CAVOK 13/01 Q1023

EXPIRED METARs :
  • 161300Z 20007KT 140V240 CAVOK 12/M00 Q1023
  • 161230Z 21008KT CAVOK 12/M00 Q1023
  • 161200Z 22008KT 190V250 CAVOK 12/M01 Q1024
  • 161130Z 20007KT 160V230 CAVOK 11/M00 Q1024
  • 161100Z 21007KT 180V240 CAVOK 11/00 Q1024

TAF TAF EPSC
Valid from the 16 at 12:00 until the 17 at 12:00 UTC


161130Z 1612/1712 22008KT CAVOK
BECMG 1621/1624 3000 BR
BECMG 1701/1703 1200 BR BKN002
TEMPO 1701/1710 0500 FG OVC001
BECMG 1710/1712 2000 BR
No reported NOTAMs for that airfield.



MET'MAP, your aeronautical weather chart ! - Copyright ORBIFLY December 2007 - Disclaimer

ORBIFLY MET'MAP TEAM :

Programming & Development : Alexandra Zaïnal
Concept & Development : Baudouin d'Aumeries
Co-Development & Prog : Marc-Olivier Méhu
Technical & hardware support : Manuel Goepfert

Contact : metmap@orbifly.com




SOURCES & CREDITS :

   NOAA